This is the latest recevied weather packets stored in our database for station/object UHMM. If no packets are shown the sender has not sent any weather packets the latest 10 day(s).
| Time | Temp. | Humidity | Pressure | Rain* | Wind** | Luminosity | Snow |
|---|---|---|---|---|---|---|---|
| 1777500008 | -1.11° C | 63% | 1009 hPa | - | - | - | - |
| 1777498208 | -2.22° C | 63% | 1009 hPa | - | - | - | - |
| 1777494609 | -5° C | 73% | 1009 hPa | - | - | - | - |
| 1777492810 | -8.33° C | 85% | 1009 hPa | - | - | - | - |
| 1777491009 | -8.33° C | 85% | 1009 hPa | - | - | - | - |
| 1777489210 | -8.33° C | 92% | 1009 hPa | - | - | - | - |
| 1777487410 | -8.33° C | 92% | 1009 hPa | - | - | - | - |
| 1777485610 | -5° C | 85% | 1009 hPa | - | - | - | - |
| 1777483810 | -5° C | 85% | 1009 hPa | - | - | - | - |
| 1777482008 | -4.44° C | 85% | 1009 hPa | - | - | - | - |
| 1777480210 | -4.44° C | 85% | 1009 hPa | - | - | - | - |
| 1777478409 | -5° C | 85% | 1009 hPa | - | - | - | - |
| 1777474809 | -3.33° C | 86% | 1009 hPa | - | - | - | - |
| 1777473009 | -3.33° C | 86% | 1009 hPa | - | - | - | - |
| 1777471209 | -2.22° C | 79% | 1009 hPa | - | - | - | - |
| 1777469409 | -2.22° C | 79% | 1009 hPa | - | - | - | - |
| 1777467608 | -1.11° C | 74% | 1009 hPa | - | - | - | - |
| 1777465810 | -1.11° C | 74% | 1009 hPa | - | - | - | - |
| 1777464010 | -1.11° C | 68% | 1009 hPa | - | - | - | - |
| 1777462208 | -1.11° C | 68% | 1009 hPa | - | - | - | - |
| 1777458610 | -1.11° C | 68% | 1008 hPa | - | - | - | - |
| 1777455008 | 0° C | 63% | 1008 hPa | - | - | - | - |
| 1777451408 | 0.56° C | 59% | 1007 hPa | - | - | - | - |
| 1777449608 | 1.67° C | 51% | 1007 hPa | - | - | - | - |
| 1777447809 | 1.67° C | 51% | 1007 hPa | - | - | - | - |
* Rain since midnight (hover to see other rain measurements)
** Current wind speed in m/s (hover to see current wind gust speed)